sensor_id;sensor_type;location;lat;lon;timestamp;P1;durP1;ratioP1;P2;durP2;ratioP2
71790;SDS011;59638;52.126;5.434;2023-11-22T00:01:51;6.20;;;3.58;;
71790;SDS011;59638;52.126;5.434;2023-11-22T00:04:18;6.90;;;4.18;;
71790;SDS011;59638;52.126;5.434;2023-11-22T00:06:44;7.80;;;3.92;;
71790;SDS011;59638;52.126;5.434;2023-11-22T00:09:11;5.90;;;3.67;;
71790;SDS011;59638;52.126;5.434;2023-11-22T00:11:37;4.93;;;4.33;;
71790;SDS011;59638;52.126;5.434;2023-11-22T00:14:04;5.93;;;3.20;;
71790;SDS011;59638;52.126;5.434;2023-11-22T00:16:31;5.20;;;3.63;;
71790;SDS011;59638;52.126;5.434;2023-11-22T00:18:58;5.38;;;3.25;;
71790;SDS011;59638;52.126;5.434;2023-11-22T00:21:24;4.85;;;3.45;;
71790;SDS011;59638;52.126;5.434;2023-11-22T00:23:51;10.20;;;4.13;;
71790;SDS011;59638;52.126;5.434;2023-11-22T00:26:17;5.38;;;3.72;;
71790;SDS011;59638;52.126;5.434;2023-11-22T00:28:44;8.05;;;3.83;;
71790;SDS011;59638;52.126;5.434;2023-11-22T00:31:10;6.32;;;3.55;;
71790;SDS011;59638;52.126;5.434;2023-11-22T00:33:37;5.38;;;3.70;;
71790;SDS011;59638;52.126;5.434;2023-11-22T00:36:03;4.70;;;2.70;;
71790;SDS011;59638;52.126;5.434;2023-11-22T00:38:30;5.10;;;3.22;;
71790;SDS011;59638;52.126;5.434;2023-11-22T00:40:57;5.63;;;3.05;;
71790;SDS011;59638;52.126;5.434;2023-11-22T00:43:25;5.43;;;3.67;;
71790;SDS011;59638;52.126;5.434;2023-11-22T00:45:52;7.13;;;3.55;;
71790;SDS011;59638;52.126;5.434;2023-11-22T00:48:19;5.70;;;3.47;;
71790;SDS011;59638;52.126;5.434;2023-11-22T00:50:45;4.68;;;3.67;;
71790;SDS011;59638;52.126;5.434;2023-11-22T00:53:12;5.60;;;3.38;;
71790;SDS011;59638;52.126;5.434;2023-11-22T00:55:40;6.80;;;3.50;;
71790;SDS011;59638;52.126;5.434;2023-11-22T00:58:08;5.47;;;3.92;;
71790;SDS011;59638;52.126;5.434;2023-11-22T01:00:34;5.77;;;3.57;;
71790;SDS011;59638;52.126;5.434;2023-11-22T01:03:01;4.43;;;3.17;;
71790;SDS011;59638;52.126;5.434;2023-11-22T01:05:27;4.95;;;3.85;;
71790;SDS011;59638;52.126;5.434;2023-11-22T01:07:55;7.55;;;4.05;;
71790;SDS011;59638;52.126;5.434;2023-11-22T01:10:22;6.57;;;3.33;;
71790;SDS011;59638;52.126;5.434;2023-11-22T01:12:48;5.43;;;3.73;;
71790;SDS011;59638;52.126;5.434;2023-11-22T01:15:15;4.60;;;3.17;;
71790;SDS011;59638;52.126;5.434;2023-11-22T01:17:42;4.93;;;3.15;;
71790;SDS011;59638;52.126;5.434;2023-11-22T01:20:09;6.15;;;2.92;;
71790;SDS011;59638;52.126;5.434;2023-11-22T01:22:38;3.38;;;2.70;;
71790;SDS011;59638;52.126;5.434;2023-11-22T01:25:04;9.53;;;3.30;;
71790;SDS011;59638;52.126;5.434;2023-11-22T01:27:31;11.95;;;3.38;;
71790;SDS011;59638;52.126;5.434;2023-11-22T01:29:58;4.97;;;3.40;;
71790;SDS011;59638;52.126;5.434;2023-11-22T01:32:24;5.63;;;3.38;;
71790;SDS011;59638;52.126;5.434;2023-11-22T01:34:50;6.13;;;3.03;;
71790;SDS011;59638;52.126;5.434;2023-11-22T01:37:17;6.83;;;3.33;;
71790;SDS011;59638;52.126;5.434;2023-11-22T01:39:43;4.57;;;3.22;;
71790;SDS011;59638;52.126;5.434;2023-11-22T01:42:10;3.97;;;3.10;;
71790;SDS011;59638;52.126;5.434;2023-11-22T01:44:36;3.55;;;2.60;;
71790;SDS011;59638;52.126;5.434;2023-11-22T01:47:03;4.82;;;3.40;;
71790;SDS011;59638;52.126;5.434;2023-11-22T01:49:31;5.37;;;3.57;;
71790;SDS011;59638;52.126;5.434;2023-11-22T01:51:57;5.10;;;3.28;;
71790;SDS011;59638;52.126;5.434;2023-11-22T01:54:24;6.15;;;2.72;;
71790;SDS011;59638;52.126;5.434;2023-11-22T01:56:51;6.78;;;3.00;;
71790;SDS011;59638;52.126;5.434;2023-11-22T01:59:17;3.75;;;2.78;;
71790;SDS011;59638;52.126;5.434;2023-11-22T02:01:44;4.17;;;3.30;;
71790;SDS011;59638;52.126;5.434;2023-11-22T02:04:14;4.22;;;2.80;;
71790;SDS011;59638;52.126;5.434;2023-11-22T02:06:41;4.82;;;3.42;;
71790;SDS011;59638;52.126;5.434;2023-11-22T02:09:08;3.67;;;2.58;;
71790;SDS011;59638;52.126;5.434;2023-11-22T02:11:56;6.80;;;2.70;;
71790;SDS011;59638;52.126;5.434;2023-11-22T02:14:22;5.27;;;3.07;;
71790;SDS011;59638;52.126;5.434;2023-11-22T02:16:48;12.75;;;3.25;;
71790;SDS011;59638;52.126;5.434;2023-11-22T02:19:17;7.10;;;2.63;;
71790;SDS011;59638;52.126;5.434;2023-11-22T02:21:43;3.63;;;2.42;;
71790;SDS011;59638;52.126;5.434;2023-11-22T02:24:10;3.70;;;2.28;;
71790;SDS011;59638;52.126;5.434;2023-11-22T02:26:38;4.20;;;2.80;;
71790;SDS011;59638;52.126;5.434;2023-11-22T02:29:05;4.32;;;2.55;;
71790;SDS011;59638;52.126;5.434;2023-11-22T02:31:32;5.30;;;3.33;;
71790;SDS011;59638;52.126;5.434;2023-11-22T02:34:00;4.68;;;3.28;;
71790;SDS011;59638;52.126;5.434;2023-11-22T02:36:26;5.25;;;3.30;;
71790;SDS011;59638;52.126;5.434;2023-11-22T02:38:53;6.50;;;2.50;;
71790;SDS011;59638;52.126;5.434;2023-11-22T02:41:20;4.60;;;2.65;;
71790;SDS011;59638;52.126;5.434;2023-11-22T02:43:46;3.05;;;2.33;;
71790;SDS011;59638;52.126;5.434;2023-11-22T02:46:13;3.50;;;2.17;;
71790;SDS011;59638;52.126;5.434;2023-11-22T02:48:40;4.38;;;2.42;;
71790;SDS011;59638;52.126;5.434;2023-11-22T02:51:06;3.80;;;2.37;;
71790;SDS011;59638;52.126;5.434;2023-11-22T02:53:33;3.60;;;2.45;;
71790;SDS011;59638;52.126;5.434;2023-11-22T02:56:00;3.55;;;2.20;;
71790;SDS011;59638;52.126;5.434;2023-11-22T02:58:29;5.07;;;2.50;;
71790;SDS011;59638;52.126;5.434;2023-11-22T03:00:57;6.95;;;2.80;;
71790;SDS011;59638;52.126;5.434;2023-11-22T03:03:23;5.83;;;3.00;;
71790;SDS011;59638;52.126;5.434;2023-11-22T03:05:50;5.55;;;2.83;;
71790;SDS011;59638;52.126;5.434;2023-11-22T03:08:16;5.30;;;3.50;;
71790;SDS011;59638;52.126;5.434;2023-11-22T03:10:43;6.88;;;2.63;;
71790;SDS011;59638;52.126;5.434;2023-11-22T03:13:10;4.90;;;2.08;;
71790;SDS011;59638;52.126;5.434;2023-11-22T03:15:36;3.90;;;1.83;;
71790;SDS011;59638;52.126;5.434;2023-11-22T03:18:03;3.90;;;1.85;;
71790;SDS011;59638;52.126;5.434;2023-11-22T03:20:32;4.40;;;2.38;;
71790;SDS011;59638;52.126;5.434;2023-11-22T03:22:59;2.67;;;1.52;;
71790;SDS011;59638;52.126;5.434;2023-11-22T03:25:26;3.47;;;1.90;;
71790;SDS011;59638;52.126;5.434;2023-11-22T03:27:52;4.13;;;2.33;;
71790;SDS011;59638;52.126;5.434;2023-11-22T03:30:19;6.25;;;2.60;;
71790;SDS011;59638;52.126;5.434;2023-11-22T03:32:46;3.03;;;1.80;;
71790;SDS011;59638;52.126;5.434;2023-11-22T03:35:12;4.10;;;2.85;;
71790;SDS011;59638;52.126;5.434;2023-11-22T03:37:39;6.80;;;2.97;;
71790;SDS011;59638;52.126;5.434;2023-11-22T03:40:05;4.23;;;2.53;;
71790;SDS011;59638;52.126;5.434;2023-11-22T03:42:34;4.15;;;2.40;;
71790;SDS011;59638;52.126;5.434;2023-11-22T03:45:02;3.22;;;2.53;;
71790;SDS011;59638;52.126;5.434;2023-11-22T03:47:30;3.67;;;2.42;;
71790;SDS011;59638;52.126;5.434;2023-11-22T03:49:57;4.20;;;2.67;;
71790;SDS011;59638;52.126;5.434;2023-11-22T03:52:24;6.60;;;2.43;;
71790;SDS011;59638;52.126;5.434;2023-11-22T03:54:50;4.32;;;2.78;;
71790;SDS011;59638;52.126;5.434;2023-11-22T03:57:17;4.43;;;2.80;;
71790;SDS011;59638;52.126;5.434;2023-11-22T03:59:43;6.70;;;3.08;;
71790;SDS011;59638;52.126;5.434;2023-11-22T04:02:10;7.30;;;3.22;;
71790;SDS011;59638;52.126;5.434;2023-11-22T04:04:36;7.27;;;2.73;;
71790;SDS011;59638;52.126;5.434;2023-11-22T04:07:06;3.28;;;2.30;;
71790;SDS011;59638;52.126;5.434;2023-11-22T04:09:33;4.88;;;3.05;;
71790;SDS011;59638;52.126;5.434;2023-11-22T04:11:59;8.18;;;3.33;;
71790;SDS011;59638;52.126;5.434;2023-11-22T04:14:26;4.50;;;3.13;;
71790;SDS011;59638;52.126;5.434;2023-11-22T04:16:54;5.13;;;3.37;;
71790;SDS011;59638;52.126;5.434;2023-11-22T04:19:20;5.45;;;3.17;;
71790;SDS011;59638;52.126;5.434;2023-11-22T04:21:47;4.15;;;2.40;;
71790;SDS011;59638;52.126;5.434;2023-11-22T04:24:14;4.40;;;2.70;;
71790;SDS011;59638;52.126;5.434;2023-11-22T04:26:40;5.35;;;2.78;;
71790;SDS011;59638;52.126;5.434;2023-11-22T04:29:07;4.80;;;2.30;;
71790;SDS011;59638;52.126;5.434;2023-11-22T04:31:33;6.28;;;2.50;;
71790;SDS011;59638;52.126;5.434;2023-11-22T04:34:00;2.83;;;2.00;;
71790;SDS011;59638;52.126;5.434;2023-11-22T04:36:26;3.72;;;2.05;;
71790;SDS011;59638;52.126;5.434;2023-11-22T04:38:53;5.95;;;2.60;;
71790;SDS011;59638;52.126;5.434;2023-11-22T04:41:19;3.43;;;2.30;;
71790;SDS011;59638;52.126;5.434;2023-11-22T04:43:46;3.22;;;1.98;;
71790;SDS011;59638;52.126;5.434;2023-11-22T04:46:13;6.05;;;2.00;;
71790;SDS011;59638;52.126;5.434;2023-11-22T04:48:39;3.22;;;2.25;;
71790;SDS011;59638;52.126;5.434;2023-11-22T04:51:07;4.57;;;2.22;;
71790;SDS011;59638;52.126;5.434;2023-11-22T04:53:33;5.63;;;2.37;;
71790;SDS011;59638;52.126;5.434;2023-11-22T04:56:00;3.30;;;1.83;;
71790;SDS011;59638;52.126;5.434;2023-11-22T04:58:28;6.40;;;2.40;;
71790;SDS011;59638;52.126;5.434;2023-11-22T05:00:54;3.63;;;1.92;;
71790;SDS011;59638;52.126;5.434;2023-11-22T05:03:22;4.22;;;2.17;;
71790;SDS011;59638;52.126;5.434;2023-11-22T05:05:50;7.90;;;2.30;;
71790;SDS011;59638;52.126;5.434;2023-11-22T05:08:16;4.22;;;2.35;;
71790;SDS011;59638;52.126;5.434;2023-11-22T05:10:43;4.78;;;2.55;;
71790;SDS011;59638;52.126;5.434;2023-11-22T05:13:10;4.07;;;1.95;;
71790;SDS011;59638;52.126;5.434;2023-11-22T05:15:37;6.88;;;2.50;;
71790;SDS011;59638;52.126;5.434;2023-11-22T05:18:03;4.83;;;2.33;;
71790;SDS011;59638;52.126;5.434;2023-11-22T05:20:32;3.92;;;2.28;;
71790;SDS011;59638;52.126;5.434;2023-11-22T05:22:59;4.45;;;2.33;;
71790;SDS011;59638;52.126;5.434;2023-11-22T05:25:25;4.45;;;2.17;;
71790;SDS011;59638;52.126;5.434;2023-11-22T05:27:52;4.45;;;2.55;;
71790;SDS011;59638;52.126;5.434;2023-11-22T05:30:18;5.07;;;2.53;;
71790;SDS011;59638;52.126;5.434;2023-11-22T05:32:45;2.80;;;1.60;;
71790;SDS011;59638;52.126;5.434;2023-11-22T05:35:11;3.05;;;2.42;;
71790;SDS011;59638;52.126;5.434;2023-11-22T05:37:39;2.58;;;1.83;;
71790;SDS011;59638;52.126;5.434;2023-11-22T05:40:05;9.05;;;2.42;;
71790;SDS011;59638;52.126;5.434;2023-11-22T05:42:35;4.80;;;2.87;;
71790;SDS011;59638;52.126;5.434;2023-11-22T05:45:02;5.47;;;3.28;;
71790;SDS011;59638;52.126;5.434;2023-11-22T05:47:30;3.10;;;1.52;;
71790;SDS011;59638;52.126;5.434;2023-11-22T05:49:57;5.00;;;1.75;;
71790;SDS011;59638;52.126;5.434;2023-11-22T05:52:23;8.70;;;2.38;;
71790;SDS011;59638;52.126;5.434;2023-11-22T05:54:50;5.33;;;2.77;;
71790;SDS011;59638;52.126;5.434;2023-11-22T05:57:16;4.68;;;1.80;;
71790;SDS011;59638;52.126;5.434;2023-11-22T05:59:44;2.92;;;1.33;;
71790;SDS011;59638;52.126;5.434;2023-11-22T06:02:10;3.58;;;1.40;;
71790;SDS011;59638;52.126;5.434;2023-11-22T06:04:36;4.70;;;1.70;;
71790;SDS011;59638;52.126;5.434;2023-11-22T06:07:07;2.60;;;1.73;;
71790;SDS011;59638;52.126;5.434;2023-11-22T06:09:34;3.80;;;1.88;;
71790;SDS011;59638;52.126;5.434;2023-11-22T06:12:00;5.90;;;1.92;;
71790;SDS011;59638;52.126;5.434;2023-11-22T06:14:27;2.88;;;1.83;;
71790;SDS011;59638;52.126;5.434;2023-11-22T06:16:53;3.33;;;1.88;;
71790;SDS011;59638;52.126;5.434;2023-11-22T06:19:20;2.47;;;1.40;;
71790;SDS011;59638;52.126;5.434;2023-11-22T06:21:46;2.92;;;2.17;;
71790;SDS011;59638;52.126;5.434;2023-11-22T06:24:12;2.58;;;1.27;;
71790;SDS011;59638;52.126;5.434;2023-11-22T06:26:42;4.20;;;1.77;;
71790;SDS011;59638;52.126;5.434;2023-11-22T06:29:10;3.35;;;2.10;;
71790;SDS011;59638;52.126;5.434;2023-11-22T06:31:36;4.63;;;2.43;;
71790;SDS011;59638;52.126;5.434;2023-11-22T06:34:03;3.70;;;1.67;;
71790;SDS011;59638;52.126;5.434;2023-11-22T06:36:29;2.20;;;1.60;;
71790;SDS011;59638;52.126;5.434;2023-11-22T06:38:55;3.35;;;1.92;;
71790;SDS011;59638;52.126;5.434;2023-11-22T06:41:22;3.38;;;1.77;;
71790;SDS011;59638;52.126;5.434;2023-11-22T06:43:48;2.30;;;1.17;;
71790;SDS011;59638;52.126;5.434;2023-11-22T06:46:15;6.57;;;1.23;;
71790;SDS011;59638;52.126;5.434;2023-11-22T06:48:42;3.65;;;1.77;;
71790;SDS011;59638;52.126;5.434;2023-11-22T06:51:15;3.63;;;1.77;;
71790;SDS011;59638;52.126;5.434;2023-11-22T06:53:42;3.20;;;2.33;;
71790;SDS011;59638;52.126;5.434;2023-11-22T06:56:08;2.80;;;1.77;;
71790;SDS011;59638;52.126;5.434;2023-11-22T06:58:35;2.53;;;1.60;;
71790;SDS011;59638;52.126;5.434;2023-11-22T07:01:01;2.53;;;1.25;;
71790;SDS011;59638;52.126;5.434;2023-11-22T07:03:28;4.43;;;1.83;;
71790;SDS011;59638;52.126;5.434;2023-11-22T07:05:54;2.80;;;1.55;;
71790;SDS011;59638;52.126;5.434;2023-11-22T07:08:22;3.27;;;1.23;;
71790;SDS011;59638;52.126;5.434;2023-11-22T07:10:48;4.47;;;2.75;;
71790;SDS011;59638;52.126;5.434;2023-11-22T07:13:16;6.18;;;2.80;;
71790;SDS011;59638;52.126;5.434;2023-11-22T07:15:44;5.10;;;3.05;;
71790;SDS011;59638;52.126;5.434;2023-11-22T07:18:11;6.05;;;2.45;;
71790;SDS011;59638;52.126;5.434;2023-11-22T07:20:39;7.90;;;3.20;;
71790;SDS011;59638;52.126;5.434;2023-11-22T07:23:06;5.28;;;2.75;;
71790;SDS011;59638;52.126;5.434;2023-11-22T07:25:33;3.13;;;2.13;;
71790;SDS011;59638;52.126;5.434;2023-11-22T07:28:00;5.05;;;2.85;;
71790;SDS011;59638;52.126;5.434;2023-11-22T07:30:26;4.18;;;2.80;;
71790;SDS011;59638;52.126;5.434;2023-11-22T07:32:56;6.47;;;3.03;;
71790;SDS011;59638;52.126;5.434;2023-11-22T07:35:25;7.03;;;3.60;;
71790;SDS011;59638;52.126;5.434;2023-11-22T07:37:54;7.47;;;3.13;;
71790;SDS011;59638;52.126;5.434;2023-11-22T07:40:20;5.75;;;2.80;;
71790;SDS011;59638;52.126;5.434;2023-11-22T07:42:48;7.82;;;2.65;;
71790;SDS011;59638;52.126;5.434;2023-11-22T07:45:15;8.47;;;3.37;;
71790;SDS011;59638;52.126;5.434;2023-11-22T07:47:43;3.70;;;2.13;;
71790;SDS011;59638;52.126;5.434;2023-11-22T07:50:10;3.90;;;3.20;;
71790;SDS011;59638;52.126;5.434;2023-11-22T07:52:39;5.60;;;2.30;;
71790;SDS011;59638;52.126;5.434;2023-11-22T07:55:07;3.83;;;1.98;;
71790;SDS011;59638;52.126;5.434;2023-11-22T07:57:36;4.30;;;2.60;;
71790;SDS011;59638;52.126;5.434;2023-11-22T08:00:05;7.00;;;2.35;;
71790;SDS011;59638;52.126;5.434;2023-11-22T08:02:34;4.95;;;1.83;;
71790;SDS011;59638;52.126;5.434;2023-11-22T08:05:03;5.25;;;2.63;;
71790;SDS011;59638;52.126;5.434;2023-11-22T08:07:35;7.70;;;2.72;;
71790;SDS011;59638;52.126;5.434;2023-11-22T08:10:05;7.97;;;4.30;;
71790;SDS011;59638;52.126;5.434;2023-11-22T08:12:36;9.73;;;3.83;;
71790;SDS011;59638;52.126;5.434;2023-11-22T08:15:05;6.70;;;3.47;;
71790;SDS011;59638;52.126;5.434;2023-11-22T08:17:31;6.00;;;3.13;;
71790;SDS011;59638;52.126;5.434;2023-11-22T08:19:58;3.72;;;2.88;;
71790;SDS011;59638;52.126;5.434;2023-11-22T08:22:26;6.03;;;3.70;;
71790;SDS011;59638;52.126;5.434;2023-11-22T08:24:55;4.47;;;2.75;;
71790;SDS011;59638;52.126;5.434;2023-11-22T08:27:23;6.10;;;3.50;;
71790;SDS011;59638;52.126;5.434;2023-11-22T08:29:49;5.80;;;3.67;;
71790;SDS011;59638;52.126;5.434;2023-11-22T08:32:16;6.03;;;3.65;;
71790;SDS011;59638;52.126;5.434;2023-11-22T08:34:44;5.77;;;4.00;;
71790;SDS011;59638;52.126;5.434;2023-11-22T08:37:11;10.10;;;3.60;;
71790;SDS011;59638;52.126;5.434;2023-11-22T08:39:38;5.93;;;3.65;;
71790;SDS011;59638;52.126;5.434;2023-11-22T08:42:05;5.15;;;3.80;;
71790;SDS011;59638;52.126;5.434;2023-11-22T08:44:35;7.93;;;3.70;;
71790;SDS011;59638;52.126;5.434;2023-11-22T08:47:02;5.47;;;3.97;;
71790;SDS011;59638;52.126;5.434;2023-11-22T08:49:30;8.15;;;4.50;;
71790;SDS011;59638;52.126;5.434;2023-11-22T08:51:56;7.45;;;3.97;;
71790;SDS011;59638;52.126;5.434;2023-11-22T08:54:25;8.73;;;3.67;;
71790;SDS011;59638;52.126;5.434;2023-11-22T08:56:58;9.00;;;4.95;;
71790;SDS011;59638;52.126;5.434;2023-11-22T08:59:24;10.17;;;4.10;;
71790;SDS011;59638;52.126;5.434;2023-11-22T09:01:51;7.32;;;4.13;;
71790;SDS011;59638;52.126;5.434;2023-11-22T09:04:17;6.18;;;4.63;;
71790;SDS011;59638;52.126;5.434;2023-11-22T09:06:44;6.18;;;4.15;;
71790;SDS011;59638;52.126;5.434;2023-11-22T09:09:13;7.80;;;4.57;;
71790;SDS011;59638;52.126;5.434;2023-11-22T09:11:41;6.83;;;4.43;;
71790;SDS011;59638;52.126;5.434;2023-11-22T09:14:08;11.68;;;5.00;;
71790;SDS011;59638;52.126;5.434;2023-11-22T09:16:36;9.20;;;4.82;;
71790;SDS011;59638;52.126;5.434;2023-11-22T09:19:05;6.47;;;4.50;;
71790;SDS011;59638;52.126;5.434;2023-11-22T09:21:34;6.78;;;4.90;;
71790;SDS011;59638;52.126;5.434;2023-11-22T09:24:01;8.23;;;5.07;;
71790;SDS011;59638;52.126;5.434;2023-11-22T09:26:27;7.60;;;4.68;;
71790;SDS011;59638;52.126;5.434;2023-11-22T09:28:54;13.77;;;5.82;;
71790;SDS011;59638;52.126;5.434;2023-11-22T09:31:20;8.00;;;5.13;;
71790;SDS011;59638;52.126;5.434;2023-11-22T09:33:47;10.98;;;6.57;;
71790;SDS011;59638;52.126;5.434;2023-11-22T09:36:14;11.80;;;5.70;;
71790;SDS011;59638;52.126;5.434;2023-11-22T09:38:41;9.65;;;5.85;;
71790;SDS011;59638;52.126;5.434;2023-11-22T09:41:07;10.40;;;6.97;;
71790;SDS011;59638;52.126;5.434;2023-11-22T09:43:35;15.00;;;6.20;;
71790;SDS011;59638;52.126;5.434;2023-11-22T09:46:02;9.63;;;6.38;;
71790;SDS011;59638;52.126;5.434;2023-11-22T09:48:29;12.00;;;6.27;;
71790;SDS011;59638;52.126;5.434;2023-11-22T09:51:04;12.30;;;6.68;;
71790;SDS011;59638;52.126;5.434;2023-11-22T09:53:36;8.60;;;5.97;;
71790;SDS011;59638;52.126;5.434;2023-11-22T09:56:09;10.55;;;5.85;;
71790;SDS011;59638;52.126;5.434;2023-11-22T09:58:38;8.73;;;5.78;;
71790;SDS011;59638;52.126;5.434;2023-11-22T10:01:06;9.70;;;6.10;;
71790;SDS011;59638;52.126;5.434;2023-11-22T10:03:34;9.00;;;5.47;;
71790;SDS011;59638;52.126;5.434;2023-11-22T10:06:02;10.18;;;5.70;;
71790;SDS011;59638;52.126;5.434;2023-11-22T10:08:30;12.32;;;6.45;;
71790;SDS011;59638;52.126;5.434;2023-11-22T10:10:57;9.30;;;5.53;;
71790;SDS011;59638;52.126;5.434;2023-11-22T10:13:25;10.63;;;5.73;;
71790;SDS011;59638;52.126;5.434;2023-11-22T10:15:52;8.93;;;5.18;;
71790;SDS011;59638;52.126;5.434;2023-11-22T10:18:19;9.82;;;5.93;;
71790;SDS011;59638;52.126;5.434;2023-11-22T10:20:48;8.63;;;5.07;;
71790;SDS011;59638;52.126;5.434;2023-11-22T10:23:18;7.95;;;4.93;;
71790;SDS011;59638;52.126;5.434;2023-11-22T10:25:49;10.63;;;6.43;;
71790;SDS011;59638;52.126;5.434;2023-11-22T10:28:21;8.88;;;5.82;;
71790;SDS011;59638;52.126;5.434;2023-11-22T10:30:50;10.20;;;6.57;;
71790;SDS011;59638;52.126;5.434;2023-11-22T10:33:17;9.15;;;5.43;;
71790;SDS011;59638;52.126;5.434;2023-11-22T10:35:46;12.10;;;6.18;;
71790;SDS011;59638;52.126;5.434;2023-11-22T10:38:17;10.57;;;5.57;;
71790;SDS011;59638;52.126;5.434;2023-11-22T10:40:45;9.95;;;5.80;;
71790;SDS011;59638;52.126;5.434;2023-11-22T10:43:14;11.75;;;6.35;;
71790;SDS011;59638;52.126;5.434;2023-11-22T10:45:44;9.80;;;6.13;;
71790;SDS011;59638;52.126;5.434;2023-11-22T10:48:19;9.80;;;6.50;;
71790;SDS011;59638;52.126;5.434;2023-11-22T10:50:47;10.67;;;6.80;;
71790;SDS011;59638;52.126;5.434;2023-11-22T10:53:20;9.60;;;5.65;;
71790;SDS011;59638;52.126;5.434;2023-11-22T10:55:53;7.78;;;6.20;;
71790;SDS011;59638;52.126;5.434;2023-11-22T10:58:25;11.15;;;6.45;;
71790;SDS011;59638;52.126;5.434;2023-11-22T11:00:54;10.60;;;6.03;;
71790;SDS011;59638;52.126;5.434;2023-11-22T11:03:22;8.97;;;6.43;;
71790;SDS011;59638;52.126;5.434;2023-11-22T11:05:59;7.65;;;5.25;;
71790;SDS011;59638;52.126;5.434;2023-11-22T11:08:30;11.05;;;6.35;;
71790;SDS011;59638;52.126;5.434;2023-11-22T11:11:00;12.88;;;6.07;;
71790;SDS011;59638;52.126;5.434;2023-11-22T11:13:29;8.70;;;6.45;;
71790;SDS011;59638;52.126;5.434;2023-11-22T11:15:56;9.83;;;6.70;;
71790;SDS011;59638;52.126;5.434;2023-11-22T11:18:23;9.57;;;6.22;;
71790;SDS011;59638;52.126;5.434;2023-11-22T11:23:26;8.80;;;5.18;;
71790;SDS011;59638;52.126;5.434;2023-11-22T11:25:54;11.25;;;5.75;;
71790;SDS011;59638;52.126;5.434;2023-11-22T11:28:22;7.23;;;5.37;;
71790;SDS011;59638;52.126;5.434;2023-11-22T11:30:56;7.43;;;5.32;;
71790;SDS011;59638;52.126;5.434;2023-11-22T11:33:32;9.43;;;5.35;;
71790;SDS011;59638;52.126;5.434;2023-11-22T11:36:03;8.63;;;5.38;;
71790;SDS011;59638;52.126;5.434;2023-11-22T11:38:31;8.05;;;4.82;;
71790;SDS011;59638;52.126;5.434;2023-11-22T11:41:09;7.47;;;4.80;;
71790;SDS011;59638;52.126;5.434;2023-11-22T11:43:40;8.30;;;5.70;;
71790;SDS011;59638;52.126;5.434;2023-11-22T11:46:07;7.85;;;5.47;;
71790;SDS011;59638;52.126;5.434;2023-11-22T11:48:37;9.18;;;5.72;;
71790;SDS011;59638;52.126;5.434;2023-11-22T11:51:03;10.63;;;5.28;;
71790;SDS011;59638;52.126;5.434;2023-11-22T11:53:33;8.27;;;5.47;;
71790;SDS011;59638;52.126;5.434;2023-11-22T11:55:59;7.75;;;5.78;;
71790;SDS011;59638;52.126;5.434;2023-11-22T11:58:27;7.57;;;5.03;;
71790;SDS011;59638;52.126;5.434;2023-11-22T12:00:54;7.75;;;5.57;;
71790;SDS011;59638;52.126;5.434;2023-11-22T12:03:22;7.05;;;5.30;;
71790;SDS011;59638;52.126;5.434;2023-11-22T12:05:49;8.98;;;5.88;;
71790;SDS011;59638;52.126;5.434;2023-11-22T12:08:16;11.90;;;5.45;;
71790;SDS011;59638;52.126;5.434;2023-11-22T12:10:43;12.82;;;5.68;;
71790;SDS011;59638;52.126;5.434;2023-11-22T12:13:18;6.57;;;5.38;;
71790;SDS011;59638;52.126;5.434;2023-11-22T12:15:46;6.47;;;5.35;;
71790;SDS011;59638;52.126;5.434;2023-11-22T12:18:13;5.13;;;4.00;;
71790;SDS011;59638;52.126;5.434;2023-11-22T12:20:40;7.53;;;4.82;;
71790;SDS011;59638;52.126;5.434;2023-11-22T12:23:06;7.85;;;5.35;;
71790;SDS011;59638;52.126;5.434;2023-11-22T12:25:33;7.28;;;5.25;;
71790;SDS011;59638;52.126;5.434;2023-11-22T12:27:59;8.30;;;5.07;;
71790;SDS011;59638;52.126;5.434;2023-11-22T12:32:56;10.25;;;5.65;;
71790;SDS011;59638;52.126;5.434;2023-11-22T12:35:22;7.97;;;5.80;;
71790;SDS011;59638;52.126;5.434;2023-11-22T12:37:49;10.25;;;5.15;;
71790;SDS011;59638;52.126;5.434;2023-11-22T12:40:16;7.97;;;5.35;;
71790;SDS011;59638;52.126;5.434;2023-11-22T12:42:50;8.53;;;6.37;;
71790;SDS011;59638;52.126;5.434;2023-11-22T12:45:19;9.98;;;6.90;;
71790;SDS011;59638;52.126;5.434;2023-11-22T12:47:51;10.65;;;6.55;;
71790;SDS011;59638;52.126;5.434;2023-11-22T12:50:30;10.32;;;6.38;;
71790;SDS011;59638;52.126;5.434;2023-11-22T12:55:37;11.30;;;7.18;;
71790;SDS011;59638;52.126;5.434;2023-11-22T12:58:18;9.37;;;6.53;;
71790;SDS011;59638;52.126;5.434;2023-11-22T13:00:46;11.93;;;6.82;;
71790;SDS011;59638;52.126;5.434;2023-11-22T13:03:13;9.48;;;6.53;;
71790;SDS011;59638;52.126;5.434;2023-11-22T13:05:41;12.82;;;6.22;;
71790;SDS011;59638;52.126;5.434;2023-11-22T13:08:12;13.32;;;7.10;;
71790;SDS011;59638;52.126;5.434;2023-11-22T13:10:40;13.25;;;7.05;;
71790;SDS011;59638;52.126;5.434;2023-11-22T13:13:09;14.20;;;7.38;;
71790;SDS011;59638;52.126;5.434;2023-11-22T13:15:36;13.00;;;7.38;;
71790;SDS011;59638;52.126;5.434;2023-11-22T13:18:02;13.05;;;6.88;;
71790;SDS011;59638;52.126;5.434;2023-11-22T13:20:29;14.20;;;7.20;;
71790;SDS011;59638;52.126;5.434;2023-11-22T13:22:55;10.40;;;6.85;;
71790;SDS011;59638;52.126;5.434;2023-11-22T13:25:22;10.85;;;6.72;;
71790;SDS011;59638;52.126;5.434;2023-11-22T13:27:50;13.40;;;6.97;;
71790;SDS011;59638;52.126;5.434;2023-11-22T13:30:18;12.93;;;7.40;;
71790;SDS011;59638;52.126;5.434;2023-11-22T13:32:46;11.60;;;7.03;;
71790;SDS011;59638;52.126;5.434;2023-11-22T13:35:13;12.90;;;6.22;;
71790;SDS011;59638;52.126;5.434;2023-11-22T13:37:44;10.38;;;6.40;;
71790;SDS011;59638;52.126;5.434;2023-11-22T13:40:12;8.40;;;5.63;;
71790;SDS011;59638;52.126;5.434;2023-11-22T13:42:43;14.63;;;6.30;;
71790;SDS011;59638;52.126;5.434;2023-11-22T13:45:11;10.37;;;6.50;;
71790;SDS011;59638;52.126;5.434;2023-11-22T13:47:42;13.98;;;6.82;;
71790;SDS011;59638;52.126;5.434;2023-11-22T13:50:10;11.30;;;6.68;;
71790;SDS011;59638;52.126;5.434;2023-11-22T13:52:39;9.20;;;5.53;;
71790;SDS011;59638;52.126;5.434;2023-11-22T13:55:06;9.52;;;6.75;;
71790;SDS011;59638;52.126;5.434;2023-11-22T13:57:36;8.87;;;5.87;;
71790;SDS011;59638;52.126;5.434;2023-11-22T14:00:04;10.70;;;6.55;;
71790;SDS011;59638;52.126;5.434;2023-11-22T14:02:45;9.05;;;5.70;;
71790;SDS011;59638;52.126;5.434;2023-11-22T14:05:13;12.88;;;6.40;;
71790;SDS011;59638;52.126;5.434;2023-11-22T14:07:41;10.27;;;6.20;;
71790;SDS011;59638;52.126;5.434;2023-11-22T14:10:08;7.97;;;6.37;;
71790;SDS011;59638;52.126;5.434;2023-11-22T14:12:37;9.95;;;6.63;;
71790;SDS011;59638;52.126;5.434;2023-11-22T14:15:04;10.77;;;7.32;;
71790;SDS011;59638;52.126;5.434;2023-11-22T14:17:31;9.55;;;6.60;;
71790;SDS011;59638;52.126;5.434;2023-11-22T14:19:58;11.48;;;6.88;;
71790;SDS011;59638;52.126;5.434;2023-11-22T14:22:25;11.27;;;6.93;;
71790;SDS011;59638;52.126;5.434;2023-11-22T14:24:53;12.77;;;6.43;;
71790;SDS011;59638;52.126;5.434;2023-11-22T14:27:19;11.52;;;7.07;;
71790;SDS011;59638;52.126;5.434;2023-11-22T14:29:46;15.02;;;6.43;;
71790;SDS011;59638;52.126;5.434;2023-11-22T14:32:18;13.23;;;7.25;;
71790;SDS011;59638;52.126;5.434;2023-11-22T14:34:45;11.80;;;6.90;;
71790;SDS011;59638;52.126;5.434;2023-11-22T14:37:12;15.48;;;8.48;;
71790;SDS011;59638;52.126;5.434;2023-11-22T14:39:39;16.98;;;8.32;;
71790;SDS011;59638;52.126;5.434;2023-11-22T14:42:06;11.98;;;7.90;;
71790;SDS011;59638;52.126;5.434;2023-11-22T14:44:33;13.90;;;7.97;;
71790;SDS011;59638;52.126;5.434;2023-11-22T14:47:01;18.87;;;8.60;;
71790;SDS011;59638;52.126;5.434;2023-11-22T14:49:32;15.63;;;8.20;;
71790;SDS011;59638;52.126;5.434;2023-11-22T14:52:12;12.63;;;6.22;;
71790;SDS011;59638;52.126;5.434;2023-11-22T14:54:38;14.55;;;7.00;;
71790;SDS011;59638;52.126;5.434;2023-11-22T14:57:05;11.15;;;8.05;;